METAR KRWI 030853Z AUTO 02013KT 10SM OVC100 01/M06 A3039 RMK AO2 SLP291
 T00061061 58003 
METAR KRWI 030953Z AUTO 02016G21KT 10SM SCT065 OVC095 00/M06 A3038 RMK AO2 SLP289 T00001061
METAR KRWI 031053Z AUTO 02014KT 10SM OVC050 00/M06 A3040 RMK AO2 SLP294 T00001061
METAR KRWI 031153Z AUTO 01012KT 6SM -SN BKN019 BKN029 OVC050 M01/M05 A3041 RMK AO2 SNB20 SLP300 P0000 60000 70016 T10061050 10011 21006 53009
METAR KRWI 031253Z AUTO 02014KT 2SM -SN BR OVC010 M02/M03 A3042 RMK AO2 SLP302 P0000 T10221028
SPECI KRWI 031343Z AUTO 01011KT 1/4SM SN FZFG VV006 M02/M03 A3044 RMK AO2 P0000 METAR KRWI 031353Z AUTO 01013KT 1/2SM SN FZFG BKN004 OVC009 M02/M03 A3043 RMK AO2 SLP307 P0000 T10221028
SPECI KRWI 031434Z AUTO 01013KT 1/4SM +SN FZFG BKN003 OVC010 M03/M03 A3045 RMK AO2 P0000
METAR KRWI 031453Z AUTO 36012KT 1/2SM SN FZFG SCT003 BKN010 OVC017 M03/M03 A3044 RMK AO2 SLP310 P0000 60000 T10281028 53009
METAR KRWI 031553Z AUTO 36016KT 1SM -SN BR OVC011 M03/M03 A3044 RMK AO2 SLP308 P0000 T10281033
SPECI KRWI 031630Z AUTO 01016KT 1/4SM +SN FZFG BKN004 OVC010 M03/M03 A3042 RMK AO2 P0001
METAR KRWI 031653Z AUTO 01016KT 1/2SM SN FZFG BKN002 OVC009 M03/M03 A3040 RMK AO2 SLP295 P0001 T10281028
METAR KRWI 031753Z AUTO 01015KT 1/2SM SN FZFG SCT003 OVC010 M02/M03 A3037 RMK AO2 SLP285 P0000 60001 T10221028 11006 21028 58024
METAR KRWI 031853Z AUTO 01014G22KT 1SM -SN BR BKN010 OVC015 M02/M02 A3037 RMK AO2 SLP285 P0000 T10171022
METAR KRWI 031953Z AUTO 01013G20KT 3/4SM -SN BR BKN010 OVC014 M02/M02 A3037 RMK AO2 SLP286 P0000 T10171017
SPECI KRWI 032020Z AUTO 01015KT 1/2SM SN FZFG FEW005 BKN009 OVC012 M02/M02 A3037 RMK AO2 P0000 METAR KRWI 032053Z AUTO 36015KT 3/4SM -SN BR SCT007 OVC014 M02/M02 A3039 RMK AO2 SLP292 P0000 60000 T10171022 53006
METAR KRWI 032153Z AUTO 36014KT 1 1/2SM -SN BR SCT013 OVC022 M02/M03 A3039 RMK AO2 SLP293 P0000 T10221028
METAR KRWI 032153Z AUTO 36014KT 1 1/2SM -SN BR SCT013 OVC022 M02/M03 A3039 RMK AO2 SLP293 P0000 T10221028
METAR KRWI 032253Z AUTO 01008KT 8SM -SN SCT027 SCT049 OVC110 M02/M03 A3040 RMK AO2 SLP296 P0000 T10171033
METAR KRWI 032353Z AUTO 01012KT 10SM OVC025 M01/M06 A3041 RMK AO2 SNE2255 SLP300 P0000 60000 T10111056 11011 21022 53008